Time;durP1;ratioP1;P1;durP2;ratioP2;P2;SDS_P1;SDS_P2;PMS_P1;PMS_P2;Temp;Humidity;BMP_temperature;BMP_pressure;BME280_temperature;BME280_humidity;BME280_pressure;Samples;Min_cycle;Max_cycle;Signal;HPM_P1;HPM_P2
2022/02/20 00:00:56;;;;;;;2.42;1.48;;;;;;;2.94;100.00;99756.59;5006118;28;20082;-88
2022/02/20 00:03:25;;;;;;;1.50;1.23;;;;;;;2.98;100.00;99740.25;4978680;28;20042;-87
2022/02/20 00:05:55;;;;;;;1.90;0.30;;;;;;;3.00;100.00;99732.53;4973529;28;20147;-87
2022/02/20 00:08:32;;;;;;;1.02;0.40;;;;;;;3.00;100.00;99752.31;4974261;28;20050;-87
2022/02/20 00:14:02;;;;;;;1.23;0.70;;;;;;;2.93;100.00;99741.09;4996382;28;20057;-86
2022/02/20 00:16:29;;;;;;;1.50;0.35;;;;;;;2.92;100.00;99741.94;4979773;28;20132;-85
2022/02/20 00:19:03;;;;;;;0.30;0.20;;;;;;;2.91;100.00;99738.50;4986901;28;20057;-85
2022/02/20 00:21:30;;;;;;;1.65;0.47;;;;;;;2.90;100.00;99736.75;4996157;28;20038;-85
2022/02/20 00:24:01;;;;;;;2.05;0.55;;;;;;;2.89;100.00;99740.19;4976259;28;20113;-85
2022/02/20 00:26:28;;;;;;;1.52;0.30;;;;;;;2.90;100.00;99736.75;4972484;28;20078;-86
2022/02/20 00:28:55;;;;;;;4.03;0.63;;;;;;;2.92;100.00;99749.69;4990847;28;20057;-86
2022/02/20 00:31:22;;;;;;;2.47;0.40;;;;;;;2.93;100.00;99739.38;4986498;28;20050;-85
2022/02/20 00:33:49;;;;;;;0.77;0.25;;;;;;;2.95;100.00;99745.41;4991273;28;20056;-85
2022/02/20 00:36:21;;;;;;;0.77;0.55;;;;;;;2.98;100.00;99739.41;4995224;28;20050;-87
2022/02/20 00:38:49;;;;;;;0.88;0.65;;;;;;;3.00;100.00;99752.31;4985877;28;20596;-86
2022/02/20 00:41:19;;;;;;;1.33;0.57;;;;;;;3.01;100.00;99746.31;4991471;28;20053;-88
2022/02/20 00:43:46;;;;;;;3.28;0.57;;;;;;;2.96;100.00;99744.56;4988597;28;20054;-87
2022/02/20 00:46:20;;;;;;;1.08;0.45;;;;;;;2.96;100.00;99746.28;5006030;28;20058;-87
2022/02/20 00:48:50;;;;;;;1.13;0.80;;;;;;;2.92;100.00;99754.84;4976333;28;20060;-87
2022/02/20 00:51:18;;;;;;;0.52;0.40;;;;;;;2.92;100.00;99762.59;4956678;28;20054;-86
2022/02/20 00:53:46;;;;;;;1.58;0.32;;;;;;;2.96;100.00;99767.84;4992219;28;20050;-87
2022/02/20 00:56:12;;;;;;;0.63;0.40;;;;;;;2.98;100.00;99763.53;4974217;28;20050;-85
2022/02/20 00:58:43;;;;;;;0.40;0.40;;;;;;;3.03;100.00;99771.31;4969313;28;20054;-88
2022/02/20 01:01:10;;;;;;;0.47;0.40;;;;;;;3.08;100.00;99761.88;4986766;28;20050;-86
2022/02/20 01:03:37;;;;;;;0.30;0.30;;;;;;;3.19;100.00;99758.50;4986846;28;20050;-87
2022/02/20 01:06:07;;;;;;;0.43;0.40;;;;;;;3.25;100.00;99769.75;4976158;28;20057;-85
2022/02/20 01:11:14;;;;;;;0.20;0.20;;;;;;;3.36;100.00;99764.63;4989959;28;20364;-84
2022/02/20 01:13:48;;;;;;;1.25;0.43;;;;;;;3.40;100.00;99762.94;4995789;28;20081;-86
2022/02/20 01:16:18;;;;;;;0.20;0.20;;;;;;;3.45;100.00;99761.25;4975213;28;20508;-86
2022/02/20 01:18:46;;;;;;;0.22;0.22;;;;;;;3.48;100.00;99759.56;4991523;28;20050;-84
2022/02/20 01:21:13;;;;;;;0.55;0.28;;;;;;;3.52;100.00;99755.25;4988439;28;20046;-85
2022/02/20 01:23:40;;;;;;;0.77;0.40;;;;;;;3.55;100.00;99751.81;4976249;28;20054;-85
2022/02/20 01:26:07;;;;;;;1.40;0.50;;;;;;;3.60;100.00;99755.31;5011677;28;20050;-85
2022/02/20 01:28:35;;;;;;;0.50;0.50;;;;;;;3.63;100.00;99752.72;4967918;28;20065;-86
2022/02/20 01:31:02;;;;;;;0.20;0.20;;;;;;;3.68;100.00;99757.91;4992169;28;20531;-87
2022/02/20 01:33:30;;;;;;;0.28;0.28;;;;;;;3.71;100.00;99766.56;4986085;28;20048;-86
2022/02/20 01:36:08;;;;;;;1.10;0.40;;;;;;;3.77;100.00;99755.38;4989581;28;20086;-86
2022/02/20 01:38:36;;;;;;;0.93;0.52;;;;;;;3.82;100.00;99756.28;5005748;28;21446;-84
2022/02/20 01:41:04;;;;;;;0.35;0.35;;;;;;;3.87;100.00;99766.63;4985986;28;20056;-86
2022/02/20 01:43:31;;;;;;;1.48;0.52;;;;;;;3.93;100.00;99774.44;5005863;28;20049;-86
2022/02/20 01:45:59;;;;;;;0.52;0.47;;;;;;;3.93;100.00;99770.09;4993914;28;20935;-87
2022/02/20 01:48:29;;;;;;;1.55;0.57;;;;;;;3.95;100.00;99775.28;4987797;28;20108;-87
2022/02/20 01:50:59;;;;;;;2.13;0.73;;;;;;;4.02;100.00;99773.59;5000556;28;20061;-86
2022/02/20 01:53:29;;;;;;;0.70;0.70;;;;;;;4.04;100.00;99777.03;4997551;28;20817;-88
2022/02/20 01:55:59;;;;;;;0.60;0.60;;;;;;;4.09;100.00;99788.28;5001199;28;20112;-86
2022/02/20 01:58:26;;;;;;;0.77;0.77;;;;;;;4.14;100.00;99790.03;4978469;28;20095;-88
2022/02/20 02:00:53;;;;;;;1.08;1.08;;;;;;;4.18;100.00;99793.50;4990021;28;20049;-86
2022/02/20 02:03:21;;;;;;;5.85;2.10;;;;;;;4.20;100.00;99796.09;4977556;28;20050;-87
2022/02/20 02:05:55;;;;;;;1.40;1.30;;;;;;;4.23;100.00;99799.56;4990004;28;20923;-86
2022/02/20 02:08:23;;;;;;;6.00;1.55;;;;;;;4.27;100.00;99800.44;4992782;28;20066;-86
2022/02/20 02:10:53;;;;;;;1.38;1.38;;;;;;;4.36;100.00;99794.44;4991507;28;20054;-87
2022/02/20 02:13:20;;;;;;;1.30;1.25;;;;;;;4.46;100.00;99803.97;5004538;28;22310;-86
2022/02/20 02:15:55;;;;;;;1.70;1.60;;;;;;;4.50;100.00;99807.41;4993950;28;20589;-89
2022/02/20 02:18:22;;;;;;;4.18;2.17;;;;;;;4.57;100.00;99819.53;4993263;28;20042;-88
2022/02/20 02:20:55;;;;;;;2.40;1.95;;;;;;;4.59;100.00;99823.84;4985442;28;20130;-87
2022/02/20 02:23:22;;;;;;;2.45;1.90;;;;;;;4.63;100.00;99825.56;4990389;28;20065;-87
2022/02/20 02:25:54;;;;;;;3.00;2.15;;;;;;;4.60;100.00;99825.59;5001573;28;20674;-88
2022/02/20 02:28:22;;;;;;;3.05;2.47;;;;;;;4.54;100.00;99829.91;4970618;28;22820;-87
2022/02/20 02:30:51;;;;;;;2.70;2.50;;;;;;;4.53;100.00;99830.75;5008669;28;20041;-86
2022/02/20 02:33:37;;;;;;;4.53;2.42;;;;;;;4.53;100.00;99841.97;4987473;28;20077;-87
2022/02/20 02:36:25;;;;;;;2.40;2.25;;;;;;;4.50;100.00;99849.75;4991287;28;20050;-84
2022/02/20 02:39:04;;;;;;;2.33;2.22;;;;;;;4.51;100.00;99843.72;4984706;28;20073;-87
2022/02/20 02:41:31;;;;;;;2.30;2.20;;;;;;;4.51;100.00;99846.31;5009823;28;20137;-86
2022/02/20 02:43:58;;;;;;;5.15;3.35;;;;;;;4.51;100.00;99843.72;4993901;28;20096;-86
2022/02/20 02:46:25;;;;;;;2.83;2.63;;;;;;;4.51;100.00;99855.78;4983213;28;20141;-85
2022/02/20 02:48:52;;;;;;;3.05;2.85;;;;;;;4.53;100.00;99864.44;4988526;28;22483;-85
2022/02/20 02:51:19;;;;;;;3.72;3.33;;;;;;;4.52;100.00;99852.34;4989832;28;20060;-86
2022/02/20 02:53:59;;;;;;;3.22;2.92;;;;;;;4.54;100.00;99864.44;4994382;28;20084;-85
2022/02/20 02:56:26;;;;;;;2.30;2.15;;;;;;;4.54;100.00;99866.19;5017687;28;20068;-85
2022/02/20 02:58:58;;;;;;;2.35;2.25;;;;;;;4.54;100.00;99882.59;4972182;28;20050;-85
2022/02/20 03:01:24;;;;;;;4.35;3.17;;;;;;;4.51;100.00;99892.97;4991558;28;20294;-85
2022/02/20 03:03:51;;;;;;;2.78;2.33;;;;;;;4.48;100.00;99892.94;5002730;28;20928;-86
2022/02/20 03:06:20;;;;;;;3.72;2.15;;;;;;;4.47;100.00;99897.25;4993353;28;20070;-85
2022/02/20 03:08:49;;;;;;;3.08;2.30;;;;;;;4.46;100.00;99903.28;4978277;28;20042;-85
2022/02/20 03:11:25;;;;;;;3.35;2.50;;;;;;;4.50;100.00;99911.06;4989818;28;20049;-85
2022/02/20 03:13:52;;;;;;;3.22;1.77;;;;;;;4.46;100.00;99916.25;5008773;28;20898;-87
2022/02/20 03:16:29;;;;;;;3.00;2.25;;;;;;;4.46;100.00;99916.25;5009914;28;20604;-87
2022/02/20 03:18:57;;;;;;;4.45;2.08;;;;;;;4.44;100.00;99927.47;4992379;28;20092;-87
2022/02/20 03:21:27;;;;;;;3.15;2.85;;;;;;;4.45;100.00;99932.66;4995980;28;20091;-86
2022/02/20 03:23:54;;;;;;;3.55;1.75;;;;;;;4.42;100.00;99932.66;4970367;28;20053;-83
2022/02/20 03:26:22;;;;;;;3.22;2.72;;;;;;;4.42;100.00;99936.94;4993142;28;20496;-85
2022/02/20 03:28:49;;;;;;;5.47;2.30;;;;;;;4.39;100.00;99947.31;4992043;28;20056;-87
2022/02/20 03:31:17;;;;;;;6.18;2.80;;;;;;;4.40;100.00;99952.50;4985642;28;20061;-85
2022/02/20 03:33:46;;;;;;;3.67;2.67;;;;;;;4.39;100.00;99963.72;4995575;28;20057;-85
2022/02/20 03:36:40;;;;;;;6.88;2.60;;;;;;;4.39;100.00;99957.69;5006809;28;20582;-85
2022/02/20 03:39:07;;;;;;;2.75;2.55;;;;;;;4.35;100.00;99977.50;4995123;28;20049;-84
2022/02/20 03:41:35;;;;;;;1.90;1.70;;;;;;;4.35;100.00;99979.25;5040326;23;20507;-83
2022/02/20 03:44:12;;;;;;;6.78;2.38;;;;;;;4.31;100.00;99988.72;5028862;28;20071;-85
2022/02/20 03:46:39;;;;;;;3.50;2.90;;;;;;;4.29;100.00;99995.66;5032794;28;20090;-86
2022/02/20 03:49:06;;;;;;;4.55;2.97;;;;;;;4.23;100.00;100004.22;5023994;28;20056;-87
2022/02/20 03:51:37;;;;;;;3.33;2.08;;;;;;;4.20;100.00;100009.41;5018461;28;20127;-86
2022/02/20 03:54:05;;;;;;;3.47;2.25;;;;;;;4.19;100.00;100014.56;5029544;28;20083;-87
2022/02/20 03:56:32;;;;;;;3.97;2.75;;;;;;;4.17;100.00;100026.63;5011814;28;20059;-84
2022/02/20 03:58:59;;;;;;;3.20;2.90;;;;;;;4.11;100.00;100030.06;5027264;28;20056;-85
2022/02/20 04:01:31;;;;;;;3.45;3.15;;;;;;;4.08;100.00;100038.69;5014585;28;20045;-86
2022/02/20 04:04:00;;;;;;;5.57;2.83;;;;;;;4.04;100.00;100042.09;5029370;28;20122;-85
2022/02/20 04:06:27;;;;;;;4.22;3.88;;;;;;;4.05;100.00;100050.72;5029454;28;20793;-86
2022/02/20 04:08:54;;;;;;;4.10;3.63;;;;;;;4.01;100.00;100051.56;5004473;28;20131;-86
2022/02/20 04:11:24;;;;;;;5.03;3.90;;;;;;;3.96;100.00;100062.75;5016335;28;20051;-86
2022/02/20 04:13:57;;;;;;;5.35;4.53;;;;;;;3.96;100.00;100060.16;5033792;28;20045;-85
2022/02/20 04:16:27;;;;;;;6.40;4.45;;;;;;;3.95;100.00;100062.72;5025671;28;20159;-87
2022/02/20 04:18:58;;;;;;;5.25;4.75;;;;;;;3.95;100.00;100073.06;5029821;28;20055;-83
2022/02/20 04:24:17;;;;;;;7.30;4.57;;;;;;;3.92;100.00;100079.09;5021173;28;20099;-83
2022/02/20 04:26:48;;;;;;;7.28;4.68;;;;;;;3.90;100.00;100077.38;5030667;28;20050;-86
2022/02/20 04:29:17;;;;;;;5.45;4.95;;;;;;;3.88;100.00;100090.28;5021080;28;20317;-87
2022/02/20 04:31:44;;;;;;;6.85;4.30;;;;;;;3.87;100.00;100104.09;5032955;28;21196;-86
2022/02/20 04:34:11;;;;;;;5.57;4.55;;;;;;;3.86;100.00;100102.38;5014558;28;20577;-86
2022/02/20 04:36:40;;;;;;;7.72;6.10;;;;;;;3.89;100.00;100117.06;5013594;28;20140;-84
2022/02/20 04:39:09;;;;;;;6.80;5.05;;;;;;;3.88;100.00;100117.91;5028794;28;20657;-85
2022/02/20 04:41:36;;;;;;;6.53;5.80;;;;;;;3.90;100.00;100129.16;5023250;28;20076;-87
2022/02/20 04:44:18;;;;;;;7.65;5.18;;;;;;;3.88;100.00;100123.09;5030901;28;20121;-85
2022/02/20 04:46:47;;;;;;;5.25;4.75;;;;;;;3.88;100.00;100139.47;5023109;28;20468;-84
2022/02/20 04:49:18;;;;;;;5.57;5.15;;;;;;;3.88;100.00;100152.44;5024088;28;23315;-85
2022/02/20 04:54:27;;;;;;;6.20;4.97;;;;;;;3.87;100.00;100134.28;5006549;28;20045;-84
2022/02/20 04:56:55;;;;;;;6.05;5.32;;;;;;;3.86;100.00;100141.19;5027949;28;20533;-87
2022/02/20 04:59:33;;;;;;;5.32;4.57;;;;;;;3.84;100.00;100142.91;5005789;28;20045;-85
2022/02/20 05:02:00;;;;;;;6.65;5.32;;;;;;;3.81;100.00;100164.44;5029551;28;20118;-85
2022/02/20 05:04:26;;;;;;;7.22;4.82;;;;;;;3.80;100.00;100161.84;5023326;28;20053;-85
2022/02/20 05:06:56;;;;;;;11.88;5.20;;;;;;;3.76;100.00;100163.53;4997444;28;20471;-84
2022/02/20 05:09:25;;;;;;;5.68;5.05;;;;;;;3.74;100.00;100166.94;4994798;28;20056;-83
2022/02/20 05:11:52;;;;;;;7.28;5.40;;;;;;;3.72;100.00;100160.91;5010723;28;20095;-86
2022/02/20 05:14:20;;;;;;;8.93;5.40;;;;;;;3.71;100.00;100167.78;5013836;28;20041;-84
2022/02/20 05:16:47;;;;;;;5.85;4.80;;;;;;;3.65;100.00;100159.97;5015697;28;20053;-84
2022/02/20 05:19:27;;;;;;;6.43;5.25;;;;;;;3.66;100.00;100160.84;5015114;28;20841;-85
2022/02/20 05:21:54;;;;;;;6.78;5.07;;;;;;;3.64;100.00;100160.81;4997071;28;20485;-85
2022/02/20 05:24:25;;;;;;;8.00;5.57;;;;;;;3.62;100.00;100162.50;5027439;28;20056;-85
2022/02/20 05:26:55;;;;;;;6.50;4.28;;;;;;;3.60;100.00;100170.25;5003691;28;20129;-85
2022/02/20 05:29:25;;;;;;;6.43;5.60;;;;;;;3.60;100.00;100167.66;5024277;28;20128;-86
2022/02/20 05:31:54;;;;;;;8.85;4.63;;;;;;;3.57;100.00;100167.66;5006645;28;22000;-87
2022/02/20 05:34:21;;;;;;;5.22;4.72;;;;;;;3.53;100.00;100171.03;5008586;28;20053;-85
2022/02/20 05:36:50;;;;;;;5.18;4.68;;;;;;;3.52;100.00;100168.41;5011523;28;20049;-85
2022/02/20 05:39:19;;;;;;;7.75;5.18;;;;;;;3.52;100.00;100171.91;5003969;28;20053;-86
2022/02/20 05:44:33;;;;;;;5.60;4.10;;;;;;;3.50;100.00;100177.91;5015771;28;20049;-85
2022/02/20 05:47:00;;;;;;;6.05;4.50;;;;;;;3.48;100.00;100180.44;5020296;28;20041;-85
2022/02/20 05:49:26;;;;;;;5.18;4.68;;;;;;;3.48;100.00;100181.34;4987692;28;20050;-85
2022/02/20 05:51:56;;;;;;;5.53;4.65;;;;;;;3.50;100.00;100188.25;4984629;28;20132;-84
2022/02/20 05:54:28;;;;;;;6.75;5.90;;;;;;;3.45;100.00;100181.28;5000862;28;20076;-86
2022/02/20 05:56:56;;;;;;;6.85;5.35;;;;;;;3.47;100.00;100183.91;5017850;28;20552;-84
2022/02/20 05:59:23;;;;;;;7.10;4.63;;;;;;;3.46;100.00;100203.72;4996425;28;20557;-84
2022/02/20 06:01:52;;;;;;;7.10;4.63;;;;;;;3.47;100.00;100207.19;4990017;28;20080;-85
2022/02/20 06:04:25;;;;;;;8.52;5.85;;;;;;;3.48;100.00;100206.31;4982638;28;20042;-85
2022/02/20 06:06:54;;;;;;;6.95;5.10;;;;;;;3.47;100.00;100202.88;5008331;28;20049;-84
2022/02/20 06:09:21;;;;;;;7.95;5.70;;;;;;;3.48;100.00;100207.22;5008160;28;20046;-85
2022/02/20 06:11:48;;;;;;;6.10;4.95;;;;;;;3.47;100.00;100200.28;4987366;28;20109;-84
2022/02/20 06:14:15;;;;;;;7.18;5.30;;;;;;;3.47;100.00;100202.88;4994158;28;20042;-86
2022/02/20 06:16:42;;;;;;;5.22;4.72;;;;;;;3.49;100.00;100213.25;5003338;28;20730;-84
2022/02/20 06:19:10;;;;;;;6.38;5.03;;;;;;;3.51;100.00;100197.72;5007963;28;20047;-85
2022/02/20 06:21:38;;;;;;;5.07;4.55;;;;;;;3.49;100.00;100213.25;5009217;28;22756;-86
2022/02/20 06:24:06;;;;;;;5.38;4.63;;;;;;;3.48;100.00;100211.50;5011881;28;20167;-86
2022/02/20 06:26:34;;;;;;;6.03;4.60;;;;;;;3.49;100.00;100210.66;5005769;28;20057;-85
2022/02/20 06:29:04;;;;;;;7.18;5.00;;;;;;;3.45;100.00;100209.75;4975766;28;20045;-87
2022/02/20 06:31:32;;;;;;;5.75;4.93;;;;;;;3.42;100.00;100204.53;5000119;28;20057;-85
2022/02/20 06:33:58;;;;;;;6.00;4.57;;;;;;;3.43;100.00;100202.84;4989039;28;20924;-84
2022/02/20 06:36:28;;;;;;;5.90;5.30;;;;;;;3.42;100.00;100196.78;5003512;28;20130;-87
2022/02/20 06:38:56;;;;;;;6.68;4.35;;;;;;;3.41;100.00;100197.63;5025216;28;20049;-86
2022/02/20 06:41:27;;;;;;;5.57;4.93;;;;;;;3.39;100.00;100193.28;5035216;28;20066;-86
2022/02/20 06:43:58;;;;;;;4.95;4.45;;;;;;;3.41;100.00;100200.22;4978213;28;20046;-86
2022/02/20 06:46:25;;;;;;;6.40;4.30;;;;;;;3.40;100.00;100192.44;5008524;28;20049;-86
2022/02/20 06:48:54;;;;;;;5.88;5.13;;;;;;;3.42;100.00;100190.75;5004047;28;21893;-86
2022/02/20 06:51:22;;;;;;;9.90;5.82;;;;;;;3.43;100.00;100197.66;5025757;28;20049;-86
2022/02/20 06:53:59;;;;;;;8.60;4.63;;;;;;;3.46;100.00;100190.78;5015859;28;20042;-85
2022/02/20 06:56:26;;;;;;;8.45;5.10;;;;;;;3.49;100.00;100197.72;5023888;28;20132;-84
2022/02/20 06:58:59;;;;;;;6.40;4.43;;;;;;;3.52;100.00;100184.84;5003946;28;20128;-83
2022/02/20 07:01:32;;;;;;;4.78;4.00;;;;;;;3.66;100.00;100187.56;5017075;28;20074;-88
2022/02/20 07:03:59;;;;;;;3.88;3.42;;;;;;;3.72;100.00;100191.97;4998347;28;20045;-85
2022/02/20 07:06:31;;;;;;;7.40;3.00;;;;;;;3.82;100.00;100183.47;5012325;28;20045;-84
2022/02/20 07:08:58;;;;;;;5.53;4.00;;;;;;;3.87;100.00;100189.56;5009878;28;20046;-86
2022/02/20 07:11:31;;;;;;;4.95;4.05;;;;;;;3.88;99.67;100193.84;5014411;28;20073;-85
2022/02/20 07:13:59;;;;;;;8.05;3.65;;;;;;;3.92;99.07;100193.03;5011630;28;20068;-84
2022/02/20 07:16:29;;;;;;;3.30;3.00;;;;;;;3.92;96.73;100190.44;4990006;28;20037;-86
2022/02/20 07:18:57;;;;;;;3.08;2.65;;;;;;;3.89;95.54;100192.16;5013550;28;20077;-85
2022/02/20 07:24:15;;;;;;;4.70;2.33;;;;;;;3.85;93.83;100188.66;4998724;28;20053;-86
2022/02/20 07:26:41;;;;;;;7.25;2.97;;;;;;;3.80;93.31;100179.97;4999137;28;20647;-87
2022/02/20 07:29:09;;;;;;;5.88;2.72;;;;;;;3.82;94.36;100178.28;5025928;28;20124;-86
2022/02/20 07:31:37;;;;;;;6.30;2.40;;;;;;;3.80;93.54;100178.25;5030394;28;20306;-87
2022/02/20 07:34:05;;;;;;;3.55;3.13;;;;;;;3.82;93.43;100178.28;4992900;28;20385;-88
2022/02/20 07:36:41;;;;;;;3.17;2.22;;;;;;;3.80;92.20;100169.63;5014390;28;20131;-87
2022/02/20 07:39:10;;;;;;;2.42;2.22;;;;;;;3.78;91.99;100171.31;5027919;28;20060;-86
2022/02/20 07:41:39;;;;;;;2.50;1.92;;;;;;;3.79;91.13;100166.16;5009783;28;20123;-85
2022/02/20 07:46:57;;;;;;;3.60;1.98;;;;;;;3.77;91.17;100147.16;5003405;28;20301;-85
2022/02/20 07:49:27;;;;;;;5.38;1.88;;;;;;;3.76;91.16;100152.31;5005609;28;20045;-86
2022/02/20 07:51:57;;;;;;;2.13;1.93;;;;;;;3.78;91.94;100148.91;4997853;28;20142;-85
2022/02/20 07:54:25;;;;;;;3.08;1.98;;;;;;;3.81;91.06;100141.16;5003757;28;20166;-85
2022/02/20 07:56:52;;;;;;;3.78;2.08;;;;;;;3.82;91.09;100131.69;4989637;28;20041;-86
2022/02/20 07:59:22;;;;;;;1.90;1.65;;;;;;;3.90;91.11;100135.19;5025086;28;20092;-87
2022/02/20 08:01:51;;;;;;;3.58;2.15;;;;;;;3.93;91.00;100124.84;5010469;28;20100;-85
2022/02/20 08:04:18;;;;;;;2.75;2.00;;;;;;;4.00;89.64;100119.75;5011126;28;20705;-86
2022/02/20 08:06:46;;;;;;;5.40;2.22;;;;;;;4.00;89.95;100119.75;4988523;28;20052;-86
2022/02/20 08:09:13;;;;;;;5.22;2.63;;;;;;;4.01;89.72;100103.34;5010640;28;20053;-87
2022/02/20 08:11:40;;;;;;;5.55;2.28;;;;;;;4.01;90.29;100106.81;5028923;28;20037;-87
2022/02/20 08:14:07;;;;;;;4.28;2.72;;;;;;;4.00;91.25;100107.66;5015175;28;20053;-85
2022/02/20 08:16:34;;;;;;;4.30;3.28;;;;;;;4.07;91.71;100100.84;5021708;28;20060;-85
2022/02/20 08:19:05;;;;;;;6.10;4.03;;;;;;;4.04;92.40;100091.31;5012389;28;20053;-87
2022/02/20 08:24:15;;;;;;;8.15;3.63;;;;;;;4.03;93.27;100088.69;5015461;28;20505;-86
2022/02/20 08:26:45;;;;;;;6.32;4.00;;;;;;;4.05;94.31;100087.00;4992323;28;20513;-86
2022/02/20 08:34:37;;;;;;;6.10;3.92;;;;;;;4.02;96.26;100055.91;5022872;28;20472;-85
2022/02/20 08:37:06;;;;;;;6.72;3.90;;;;;;;4.03;97.08;100045.53;4992992;28;20057;-85
2022/02/20 08:39:34;;;;;;;6.28;5.20;;;;;;;4.05;97.45;100037.78;5005687;28;20050;-86
2022/02/20 08:42:02;;;;;;;7.15;4.43;;;;;;;4.08;97.74;100027.44;5006988;28;20123;-84
2022/02/20 08:44:33;;;;;;;6.75;5.00;;;;;;;4.08;98.04;100015.38;5006229;28;20056;-85
2022/02/20 08:47:01;;;;;;;6.30;5.18;;;;;;;4.10;99.22;100021.41;5020329;28;20056;-86
2022/02/20 08:49:31;;;;;;;8.00;5.50;;;;;;;4.07;99.54;100015.34;5023727;28;20049;-85
2022/02/20 08:52:00;;;;;;;5.22;4.47;;;;;;;4.07;99.78;100003.25;5038279;28;20049;-86
2022/02/20 08:54:31;;;;;;;7.15;5.10;;;;;;;4.09;100.00;99998.09;5046012;28;20042;-85
2022/02/20 08:56:59;;;;;;;6.70;5.38;;;;;;;4.08;100.00;99992.06;5012860;28;20041;-84
2022/02/20 08:59:31;;;;;;;6.57;4.55;;;;;;;4.10;100.00;99977.38;5007378;28;20037;-85
2022/02/20 09:01:59;;;;;;;8.77;5.50;;;;;;;4.10;100.00;99973.91;5038401;28;20041;-86
2022/02/20 09:04:28;;;;;;;12.90;6.38;;;;;;;4.12;100.00;99964.44;4998160;28;20041;-85
2022/02/20 09:06:56;;;;;;;7.50;5.60;;;;;;;4.11;100.00;99957.53;5013715;28;20510;-85
2022/02/20 09:09:23;;;;;;;7.88;5.70;;;;;;;4.07;100.00;99945.44;5027607;28;20646;-86
2022/02/20 09:11:53;;;;;;;6.80;4.88;;;;;;;4.05;100.00;99942.81;5026143;28;20045;-87
2022/02/20 09:14:21;;;;;;;6.97;4.70;;;;;;;4.06;100.00;99925.56;4998824;28;20053;-85
2022/02/20 09:16:57;;;;;;;5.75;5.07;;;;;;;4.01;100.00;99917.75;5010186;28;20060;-87
2022/02/20 09:19:27;;;;;;;7.05;5.03;;;;;;;4.02;100.00;99911.72;5012925;28;20168;-86
2022/02/20 09:21:55;;;;;;;9.27;4.72;;;;;;;4.02;100.00;99892.72;5004079;28;20052;-85
2022/02/20 09:24:28;;;;;;;9.93;4.97;;;;;;;4.06;100.00;99882.38;5015479;28;20059;-87
2022/02/20 09:26:56;;;;;;;6.63;4.72;;;;;;;4.02;100.00;99879.78;5006654;28;21579;-83
2022/02/20 09:29:33;;;;;;;6.78;4.55;;;;;;;4.03;100.00;99876.31;5017746;28;20041;-85
2022/02/20 09:32:05;;;;;;;7.60;5.30;;;;;;;4.04;100.00;99866.00;5004388;28;20073;-87
2022/02/20 09:34:32;;;;;;;5.90;3.60;;;;;;;4.07;100.00;99865.13;5019172;28;20124;-88
2022/02/20 09:37:00;;;;;;;5.50;4.40;;;;;;;4.08;100.00;99854.78;5009027;28;20053;-87
2022/02/20 09:39:28;;;;;;;5.97;3.83;;;;;;;4.15;100.00;99853.06;4995050;28;20073;-86
2022/02/20 09:42:02;;;;;;;6.63;3.67;;;;;;;4.16;100.00;99840.97;5010008;28;20536;-85
2022/02/20 09:44:30;;;;;;;5.50;3.75;;;;;;;4.18;100.00;99844.44;5004490;28;20061;-87
2022/02/20 09:46:58;;;;;;;6.95;3.88;;;;;;;4.19;100.00;99830.66;5011621;28;20061;-86
2022/02/20 09:49:30;;;;;;;4.18;3.38;;;;;;;4.21;100.00;99836.69;5021122;28;20052;-84
2022/02/20 09:52:00;;;;;;;9.30;4.22;;;;;;;4.24;100.00;99818.56;5023811;28;20057;-85
2022/02/20 09:54:27;;;;;;;5.82;2.97;;;;;;;4.29;100.00;99825.50;5022399;28;20510;-87
2022/02/20 09:56:55;;;;;;;3.40;2.72;;;;;;;4.38;100.00;99821.19;5001106;28;20069;-85
2022/02/20 09:59:22;;;;;;;4.38;2.15;;;;;;;4.43;100.00;99814.28;5010601;28;20139;-82
2022/02/20 10:02:09;;;;;;;5.70;2.25;;;;;;;4.48;100.00;99804.81;5019660;28;20053;-84
2022/02/20 10:04:47;;;;;;;4.82;2.15;;;;;;;4.54;100.00;99797.06;5010293;28;20115;-84
2022/02/20 10:07:40;;;;;;;2.40;2.05;;;;;;;4.61;100.00;99774.59;5006602;28;20045;-85
2022/02/20 10:10:21;;;;;;;1.98;1.80;;;;;;;4.66;100.00;99772.88;5020533;28;20049;-85
2022/02/20 10:13:03;;;;;;;2.67;2.30;;;;;;;4.72;100.00;99772.00;5010190;28;20586;-86
2022/02/20 10:15:41;;;;;;;6.15;1.80;;;;;;;4.75;100.00;99782.41;4975317;28;20082;-87
2022/02/20 10:18:26;;;;;;;4.25;1.95;;;;;;;4.75;100.00;99765.09;5034712;28;20163;-86
2022/02/20 10:21:04;;;;;;;2.25;1.65;;;;;;;4.80;100.00;99765.97;5009390;28;20140;-84
2022/02/20 10:26:24;;;;;;;2.75;1.88;;;;;;;4.93;100.00;99735.72;5005518;28;20045;-86
2022/02/20 10:29:20;;;;;;;2.22;1.83;;;;;;;4.95;100.00;99756.44;5002014;28;20594;-88
2022/02/20 10:32:00;;;;;;;3.17;1.77;;;;;;;4.94;100.00;99759.91;4997381;28;20123;-85
2022/02/20 10:34:46;;;;;;;3.53;1.50;;;;;;;4.96;100.00;99746.06;5025310;28;20136;-86
2022/02/20 10:39:55;;;;;;;1.67;1.42;;;;;;;5.05;100.00;99762.50;5015138;28;20046;-87
2022/02/20 10:45:10;;;;;;;5.72;2.10;;;;;;;5.08;100.00;99746.94;4999407;28;21188;-86
2022/02/20 10:47:44;;;;;;;6.57;2.08;;;;;;;5.16;100.00;99744.34;5022205;28;20077;-88
2022/02/20 10:50:29;;;;;;;6.85;1.42;;;;;;;5.26;100.00;99740.84;5012810;28;20049;-87
2022/02/20 10:53:23;;;;;;;2.35;0.82;;;;;;;5.43;100.00;99743.41;5031166;28;20056;-87
2022/02/20 10:55:52;;;;;;;3.25;0.98;;;;;;;5.57;100.00;99740.78;5032409;28;20077;-88
2022/02/20 11:01:25;;;;;;;5.97;0.93;;;;;;;5.78;100.00;99721.66;5008035;28;20075;-85
2022/02/20 11:04:23;;;;;;;2.50;1.05;;;;;;;5.87;100.00;99712.97;5012573;28;20069;-86
2022/02/20 11:06:50;;;;;;;3.53;0.47;;;;;;;5.97;100.00;99702.50;5008380;28;20504;-84
2022/02/20 11:15:00;;;;;;;1.27;0.65;;;;;;;6.24;100.00;99689.38;5014384;28;20054;-89
2022/02/20 11:17:30;;;;;;;3.20;0.52;;;;;;;6.29;100.00;99691.06;5015426;28;20050;-87
2022/02/20 11:20:07;;;;;;;1.52;0.82;;;;;;;6.36;100.00;99678.03;5010685;28;20057;-85
2022/02/20 11:22:37;;;;;;;0.82;0.63;;;;;;;6.40;100.00;99674.53;5012168;28;20048;-87
2022/02/20 11:25:16;;;;;;;1.10;1.10;;;;;;;6.44;100.00;99665.84;5028572;28;20050;-87
2022/02/20 11:27:50;;;;;;;0.95;0.57;;;;;;;6.54;100.00;99669.25;5013382;28;20053;-83
2022/02/20 11:30:17;;;;;;;1.33;0.63;;;;;;;6.58;100.00;99656.22;4993329;28;20060;-87
2022/02/20 11:32:45;;;;;;;4.22;0.50;;;;;;;6.62;100.00;99668.31;5009817;28;20056;-87
2022/02/20 11:38:13;;;;;;;0.50;0.32;;;;;;;6.75;100.00;99665.59;5006987;28;20618;-87
2022/02/20 11:41:05;;;;;;;4.18;0.80;;;;;;;6.83;100.00;99660.31;5012728;28;20109;-86
2022/02/20 11:46:30;;;;;;;;;;;;;;;6.84;100.00;99655.09;5016470;28;20519;-87
2022/02/20 11:49:06;;;;;;;1.48;0.50;;;;;;;6.92;100.00;99640.28;5007802;28;19932;-86
2022/02/20 11:51:35;;;;;;;2.38;0.68;;;;;;;6.95;100.00;99653.25;5004696;28;20064;-86
2022/02/20 11:54:23;;;;;;;1.33;0.90;;;;;;;7.02;100.00;99629.78;5010149;28;20063;-86
2022/02/20 11:57:18;;;;;;;5.38;2.08;;;;;;;7.14;100.00;99647.84;5014503;28;20518;-87
2022/02/20 12:00:04;;;;;;;1.42;1.08;;;;;;;7.17;100.00;99637.41;5015044;28;20056;-86
2022/02/20 12:02:32;;;;;;;1.67;1.30;;;;;;;7.23;100.00;99647.72;5013769;28;20187;-87
2022/02/20 12:05:07;;;;;;;4.55;1.23;;;;;;;7.28;100.00;99635.53;4994296;28;20053;-85
2022/02/20 12:07:43;;;;;;;2.65;1.88;;;;;;;7.29;100.00;99639.84;5013914;28;20064;-87
2022/02/20 12:10:19;;;;;;;3.03;1.63;;;;;;;7.33;100.00;99635.47;4988360;28;20045;-83
2022/02/20 12:13:20;;;;;;;2.75;1.80;;;;;;;7.36;100.00;99642.41;5017700;28;20105;-85
2022/02/20 12:15:48;;;;;;;2.30;2.10;;;;;;;7.37;100.00;99636.31;5031051;28;20046;-90
2022/02/20 12:18:15;;;;;;;2.38;2.17;;;;;;;7.41;100.00;99623.22;5025064;28;20515;-86
2022/02/20 12:20:51;;;;;;;1.65;1.55;;;;;;;7.42;100.00;99639.72;5014685;28;20583;-87
2022/02/20 12:23:51;;;;;;;3.28;1.60;;;;;;;7.45;100.00;99629.25;5006658;28;20049;-89
2022/02/20 12:29:46;;;;;;;4.25;2.05;;;;;;;7.60;100.00;99612.56;5017518;28;20535;-85
2022/02/20 12:32:23;;;;;;;3.13;2.22;;;;;;;7.65;100.00;99609.91;5009902;28;20124;-82
2022/02/20 12:35:11;;;;;;;2.60;2.33;;;;;;;7.70;100.00;99608.94;5009253;28;20056;-88
2022/02/20 12:40:47;;;;;;;2.58;1.65;;;;;;;7.93;100.00;99594.75;5015642;28;20068;-85
2022/02/20 12:46:00;;;;;;;4.35;2.10;;;;;;;8.06;100.00;99600.63;5026107;28;20111;-87
2022/02/20 12:48:28;;;;;;;5.85;2.00;;;;;;;8.07;100.00;99578.88;5006581;28;20298;-86